sensor_id;sensor_type;location;lat;lon;timestamp;P1;durP1;ratioP1;P2;durP2;ratioP2
50002;SDS011;35889;51.442;6.408;2022-07-25T00:02:11;0.50;;;0.50;;
50002;SDS011;35889;51.442;6.408;2022-07-25T00:04:37;0.50;;;0.50;;
50002;SDS011;35889;51.442;6.408;2022-07-25T00:07:02;0.60;;;0.60;;
50002;SDS011;35889;51.442;6.408;2022-07-25T00:09:27;0.60;;;0.60;;
50002;SDS011;35889;51.442;6.408;2022-07-25T00:11:52;0.60;;;0.60;;
50002;SDS011;35889;51.442;6.408;2022-07-25T00:14:18;0.60;;;0.60;;
50002;SDS011;35889;51.442;6.408;2022-07-25T00:16:43;0.60;;;0.60;;
50002;SDS011;35889;51.442;6.408;2022-07-25T00:19:09;0.60;;;0.60;;
50002;SDS011;35889;51.442;6.408;2022-07-25T00:21:34;0.60;;;0.60;;
50002;SDS011;35889;51.442;6.408;2022-07-25T00:23:59;0.60;;;0.60;;
50002;SDS011;35889;51.442;6.408;2022-07-25T00:26:24;0.60;;;0.60;;
50002;SDS011;35889;51.442;6.408;2022-07-25T00:28:50;0.60;;;0.60;;
50002;SDS011;35889;51.442;6.408;2022-07-25T00:31:15;0.60;;;0.60;;
50002;SDS011;35889;51.442;6.408;2022-07-25T00:33:40;0.60;;;0.60;;
50002;SDS011;35889;51.442;6.408;2022-07-25T00:36:06;0.60;;;0.60;;
50002;SDS011;35889;51.442;6.408;2022-07-25T00:38:31;0.50;;;0.50;;
50002;SDS011;35889;51.442;6.408;2022-07-25T00:40:57;0.60;;;0.60;;
50002;SDS011;35889;51.442;6.408;2022-07-25T00:43:22;0.60;;;0.60;;
50002;SDS011;35889;51.442;6.408;2022-07-25T00:45:47;0.50;;;0.50;;
50002;SDS011;35889;51.442;6.408;2022-07-25T00:48:12;0.60;;;0.60;;
50002;SDS011;35889;51.442;6.408;2022-07-25T00:50:38;0.60;;;0.60;;
50002;SDS011;35889;51.442;6.408;2022-07-25T00:53:03;0.60;;;0.60;;
50002;SDS011;35889;51.442;6.408;2022-07-25T00:55:28;0.60;;;0.60;;
50002;SDS011;35889;51.442;6.408;2022-07-25T00:57:54;0.60;;;0.60;;
50002;SDS011;35889;51.442;6.408;2022-07-25T01:00:19;0.60;;;0.60;;
50002;SDS011;35889;51.442;6.408;2022-07-25T01:02:45;0.50;;;0.50;;
50002;SDS011;35889;51.442;6.408;2022-07-25T01:05:10;0.60;;;0.60;;
50002;SDS011;35889;51.442;6.408;2022-07-25T01:07:36;0.60;;;0.60;;
50002;SDS011;35889;51.442;6.408;2022-07-25T01:10:01;0.60;;;0.60;;
50002;SDS011;35889;51.442;6.408;2022-07-25T01:12:27;0.60;;;0.60;;
50002;SDS011;35889;51.442;6.408;2022-07-25T01:14:52;0.57;;;0.57;;
50002;SDS011;35889;51.442;6.408;2022-07-25T01:17:17;0.57;;;0.57;;
50002;SDS011;35889;51.442;6.408;2022-07-25T01:19:42;0.50;;;0.50;;
50002;SDS011;35889;51.442;6.408;2022-07-25T01:22:08;0.60;;;0.60;;
50002;SDS011;35889;51.442;6.408;2022-07-25T01:24:34;0.60;;;0.60;;
50002;SDS011;35889;51.442;6.408;2022-07-25T01:26:59;0.60;;;0.60;;
50002;SDS011;35889;51.442;6.408;2022-07-25T01:29:24;0.50;;;0.50;;
50002;SDS011;35889;51.442;6.408;2022-07-25T01:31:50;0.50;;;0.50;;
50002;SDS011;35889;51.442;6.408;2022-07-25T01:34:15;0.60;;;0.60;;
50002;SDS011;35889;51.442;6.408;2022-07-25T01:36:40;0.57;;;0.57;;
50002;SDS011;35889;51.442;6.408;2022-07-25T01:39:05;0.60;;;0.60;;
50002;SDS011;35889;51.442;6.408;2022-07-25T01:41:31;0.50;;;0.50;;
50002;SDS011;35889;51.442;6.408;2022-07-25T01:43:56;0.60;;;0.60;;
50002;SDS011;35889;51.442;6.408;2022-07-25T01:46:21;0.60;;;0.60;;
50002;SDS011;35889;51.442;6.408;2022-07-25T01:48:47;0.50;;;0.50;;
50002;SDS011;35889;51.442;6.408;2022-07-25T01:51:12;0.50;;;0.50;;
50002;SDS011;35889;51.442;6.408;2022-07-25T01:53:37;0.60;;;0.60;;
50002;SDS011;35889;51.442;6.408;2022-07-25T01:56:04;0.52;;;0.52;;
50002;SDS011;35889;51.442;6.408;2022-07-25T01:58:29;0.57;;;0.57;;
50002;SDS011;35889;51.442;6.408;2022-07-25T02:00:54;0.60;;;0.60;;
50002;SDS011;35889;51.442;6.408;2022-07-25T02:03:20;0.60;;;0.60;;
50002;SDS011;35889;51.442;6.408;2022-07-25T02:05:54;0.60;;;0.60;;
50002;SDS011;35889;51.442;6.408;2022-07-25T02:08:19;0.60;;;0.60;;
50002;SDS011;35889;51.442;6.408;2022-07-25T02:10:44;0.60;;;0.60;;
50002;SDS011;35889;51.442;6.408;2022-07-25T02:13:10;0.60;;;0.60;;
50002;SDS011;35889;51.442;6.408;2022-07-25T02:15:36;0.60;;;0.60;;
50002;SDS011;35889;51.442;6.408;2022-07-25T02:18:02;0.63;;;0.63;;
50002;SDS011;35889;51.442;6.408;2022-07-25T02:20:27;0.57;;;0.57;;
50002;SDS011;35889;51.442;6.408;2022-07-25T02:22:52;0.60;;;0.60;;
50002;SDS011;35889;51.442;6.408;2022-07-25T02:25:17;0.60;;;0.60;;
50002;SDS011;35889;51.442;6.408;2022-07-25T02:27:43;0.60;;;0.60;;
50002;SDS011;35889;51.442;6.408;2022-07-25T02:30:08;0.60;;;0.60;;
50002;SDS011;35889;51.442;6.408;2022-07-25T02:32:33;0.60;;;0.60;;
50002;SDS011;35889;51.442;6.408;2022-07-25T02:34:59;0.50;;;0.50;;
50002;SDS011;35889;51.442;6.408;2022-07-25T02:37:24;0.55;;;0.55;;
50002;SDS011;35889;51.442;6.408;2022-07-25T02:39:49;0.60;;;0.60;;
50002;SDS011;35889;51.442;6.408;2022-07-25T02:42:14;0.60;;;0.60;;
50002;SDS011;35889;51.442;6.408;2022-07-25T02:44:40;0.60;;;0.60;;
50002;SDS011;35889;51.442;6.408;2022-07-25T02:47:05;0.50;;;0.50;;
50002;SDS011;35889;51.442;6.408;2022-07-25T02:49:30;0.55;;;0.55;;
50002;SDS011;35889;51.442;6.408;2022-07-25T02:51:55;0.60;;;0.60;;
50002;SDS011;35889;51.442;6.408;2022-07-25T02:54:21;0.60;;;0.60;;
50002;SDS011;35889;51.442;6.408;2022-07-25T02:56:47;0.57;;;0.57;;
50002;SDS011;35889;51.442;6.408;2022-07-25T02:59:12;0.60;;;0.60;;
50002;SDS011;35889;51.442;6.408;2022-07-25T03:01:37;0.60;;;0.60;;
50002;SDS011;35889;51.442;6.408;2022-07-25T03:04:02;0.60;;;0.60;;
50002;SDS011;35889;51.442;6.408;2022-07-25T03:06:28;0.60;;;0.60;;
50002;SDS011;35889;51.442;6.408;2022-07-25T03:08:53;0.60;;;0.60;;
50002;SDS011;35889;51.442;6.408;2022-07-25T03:11:18;0.60;;;0.60;;
50002;SDS011;35889;51.442;6.408;2022-07-25T03:13:44;0.60;;;0.60;;
50002;SDS011;35889;51.442;6.408;2022-07-25T03:16:09;0.50;;;0.50;;
50002;SDS011;35889;51.442;6.408;2022-07-25T03:18:34;0.60;;;0.60;;
50002;SDS011;35889;51.442;6.408;2022-07-25T03:20:59;0.60;;;0.60;;
50002;SDS011;35889;51.442;6.408;2022-07-25T03:23:25;0.60;;;0.60;;
50002;SDS011;35889;51.442;6.408;2022-07-25T03:25:52;0.60;;;0.60;;
50002;SDS011;35889;51.442;6.408;2022-07-25T03:28:17;0.60;;;0.60;;
50002;SDS011;35889;51.442;6.408;2022-07-25T03:30:42;0.60;;;0.60;;
50002;SDS011;35889;51.442;6.408;2022-07-25T03:33:07;0.60;;;0.60;;
50002;SDS011;35889;51.442;6.408;2022-07-25T03:35:33;0.60;;;0.60;;
50002;SDS011;35889;51.442;6.408;2022-07-25T03:37:58;0.60;;;0.60;;
50002;SDS011;35889;51.442;6.408;2022-07-25T03:40:23;0.60;;;0.60;;
50002;SDS011;35889;51.442;6.408;2022-07-25T03:42:48;0.50;;;0.50;;
50002;SDS011;35889;51.442;6.408;2022-07-25T03:45:14;0.60;;;0.60;;
50002;SDS011;35889;51.442;6.408;2022-07-25T03:47:40;0.60;;;0.60;;
50002;SDS011;35889;51.442;6.408;2022-07-25T03:50:06;0.60;;;0.60;;
50002;SDS011;35889;51.442;6.408;2022-07-25T03:52:31;0.60;;;0.60;;
50002;SDS011;35889;51.442;6.408;2022-07-25T03:54:56;0.60;;;0.60;;
50002;SDS011;35889;51.442;6.408;2022-07-25T03:57:21;0.60;;;0.60;;
50002;SDS011;35889;51.442;6.408;2022-07-25T03:59:47;0.60;;;0.60;;
50002;SDS011;35889;51.442;6.408;2022-07-25T04:02:12;0.60;;;0.60;;
50002;SDS011;35889;51.442;6.408;2022-07-25T04:04:37;0.60;;;0.60;;
50002;SDS011;35889;51.442;6.408;2022-07-25T04:07:02;0.60;;;0.60;;
50002;SDS011;35889;51.442;6.408;2022-07-25T04:09:28;0.57;;;0.57;;
50002;SDS011;35889;51.442;6.408;2022-07-25T04:11:53;0.50;;;0.50;;
50002;SDS011;35889;51.442;6.408;2022-07-25T04:14:18;0.60;;;0.60;;
50002;SDS011;35889;51.442;6.408;2022-07-25T04:16:43;0.60;;;0.60;;
50002;SDS011;35889;51.442;6.408;2022-07-25T04:19:09;0.60;;;0.60;;
50002;SDS011;35889;51.442;6.408;2022-07-25T04:21:34;0.60;;;0.60;;
50002;SDS011;35889;51.442;6.408;2022-07-25T04:23:59;0.60;;;0.60;;
50002;SDS011;35889;51.442;6.408;2022-07-25T04:26:24;0.50;;;0.50;;
50002;SDS011;35889;51.442;6.408;2022-07-25T04:28:50;0.60;;;0.60;;
50002;SDS011;35889;51.442;6.408;2022-07-25T04:31:15;0.60;;;0.60;;
50002;SDS011;35889;51.442;6.408;2022-07-25T04:33:40;0.60;;;0.60;;
50002;SDS011;35889;51.442;6.408;2022-07-25T04:36:06;0.60;;;0.60;;
50002;SDS011;35889;51.442;6.408;2022-07-25T04:38:31;0.60;;;0.60;;
50002;SDS011;35889;51.442;6.408;2022-07-25T04:40:56;0.60;;;0.60;;
50002;SDS011;35889;51.442;6.408;2022-07-25T04:43:22;0.50;;;0.50;;
50002;SDS011;35889;51.442;6.408;2022-07-25T04:45:47;0.50;;;0.50;;
50002;SDS011;35889;51.442;6.408;2022-07-25T04:48:12;0.60;;;0.60;;
50002;SDS011;35889;51.442;6.408;2022-07-25T04:50:38;0.57;;;0.57;;
50002;SDS011;35889;51.442;6.408;2022-07-25T04:53:03;0.60;;;0.60;;
50002;SDS011;35889;51.442;6.408;2022-07-25T04:55:28;0.60;;;0.60;;
50002;SDS011;35889;51.442;6.408;2022-07-25T04:57:54;0.60;;;0.60;;
50002;SDS011;35889;51.442;6.408;2022-07-25T05:00:19;0.60;;;0.60;;
50002;SDS011;35889;51.442;6.408;2022-07-25T05:02:44;0.60;;;0.60;;
50002;SDS011;35889;51.442;6.408;2022-07-25T05:05:09;0.60;;;0.60;;
50002;SDS011;35889;51.442;6.408;2022-07-25T05:07:35;0.60;;;0.60;;
50002;SDS011;35889;51.442;6.408;2022-07-25T05:10:00;0.60;;;0.60;;
50002;SDS011;35889;51.442;6.408;2022-07-25T05:12:26;0.50;;;0.50;;
50002;SDS011;35889;51.442;6.408;2022-07-25T05:14:51;0.50;;;0.50;;
50002;SDS011;35889;51.442;6.408;2022-07-25T05:17:18;0.60;;;0.60;;
50002;SDS011;35889;51.442;6.408;2022-07-25T05:19:43;0.60;;;0.60;;
50002;SDS011;35889;51.442;6.408;2022-07-25T05:22:08;0.50;;;0.50;;
50002;SDS011;35889;51.442;6.408;2022-07-25T05:24:34;0.60;;;0.60;;
50002;SDS011;35889;51.442;6.408;2022-07-25T05:26:59;0.60;;;0.60;;
50002;SDS011;35889;51.442;6.408;2022-07-25T05:29:25;0.60;;;0.60;;
50002;SDS011;35889;51.442;6.408;2022-07-25T05:31:51;0.60;;;0.60;;
50002;SDS011;35889;51.442;6.408;2022-07-25T05:34:16;0.50;;;0.50;;
50002;SDS011;35889;51.442;6.408;2022-07-25T05:36:42;0.50;;;0.50;;
50002;SDS011;35889;51.442;6.408;2022-07-25T05:39:07;0.60;;;0.60;;
50002;SDS011;35889;51.442;6.408;2022-07-25T05:41:32;0.60;;;0.60;;
50002;SDS011;35889;51.442;6.408;2022-07-25T05:43:57;0.60;;;0.60;;
50002;SDS011;35889;51.442;6.408;2022-07-25T05:46:23;0.60;;;0.60;;
50002;SDS011;35889;51.442;6.408;2022-07-25T05:48:48;0.60;;;0.60;;
50002;SDS011;35889;51.442;6.408;2022-07-25T05:51:13;0.60;;;0.60;;
50002;SDS011;35889;51.442;6.408;2022-07-25T05:53:38;0.60;;;0.60;;
50002;SDS011;35889;51.442;6.408;2022-07-25T05:56:04;0.70;;;0.70;;
50002;SDS011;35889;51.442;6.408;2022-07-25T05:58:29;0.60;;;0.60;;
50002;SDS011;35889;51.442;6.408;2022-07-25T06:00:55;0.60;;;0.60;;
50002;SDS011;35889;51.442;6.408;2022-07-25T06:03:20;0.60;;;0.60;;
50002;SDS011;35889;51.442;6.408;2022-07-25T06:05:45;0.65;;;0.65;;
50002;SDS011;35889;51.442;6.408;2022-07-25T06:08:12;0.65;;;0.65;;
50002;SDS011;35889;51.442;6.408;2022-07-25T06:10:37;0.60;;;0.60;;
50002;SDS011;35889;51.442;6.408;2022-07-25T06:13:02;0.60;;;0.60;;
50002;SDS011;35889;51.442;6.408;2022-07-25T06:15:28;0.60;;;0.60;;
50002;SDS011;35889;51.442;6.408;2022-07-25T06:17:53;0.60;;;0.60;;
50002;SDS011;35889;51.442;6.408;2022-07-25T06:20:18;0.60;;;0.60;;
50002;SDS011;35889;51.442;6.408;2022-07-25T06:22:44;0.60;;;0.60;;
50002;SDS011;35889;51.442;6.408;2022-07-25T06:25:09;0.68;;;0.68;;
50002;SDS011;35889;51.442;6.408;2022-07-25T06:27:35;0.65;;;0.65;;
50002;SDS011;35889;51.442;6.408;2022-07-25T06:30:02;0.70;;;0.70;;
50002;SDS011;35889;51.442;6.408;2022-07-25T06:32:27;0.60;;;0.60;;
50002;SDS011;35889;51.442;6.408;2022-07-25T06:34:53;0.60;;;0.60;;
50002;SDS011;35889;51.442;6.408;2022-07-25T06:37:18;0.65;;;0.65;;
50002;SDS011;35889;51.442;6.408;2022-07-25T06:39:43;0.63;;;0.63;;
50002;SDS011;35889;51.442;6.408;2022-07-25T06:42:09;0.70;;;0.70;;
50002;SDS011;35889;51.442;6.408;2022-07-25T06:44:34;0.60;;;0.60;;
50002;SDS011;35889;51.442;6.408;2022-07-25T06:47:00;0.60;;;0.60;;
50002;SDS011;35889;51.442;6.408;2022-07-25T06:49:25;0.60;;;0.60;;
50002;SDS011;35889;51.442;6.408;2022-07-25T06:51:50;0.60;;;0.60;;
50002;SDS011;35889;51.442;6.408;2022-07-25T06:54:15;0.60;;;0.60;;
50002;SDS011;35889;51.442;6.408;2022-07-25T06:56:42;0.60;;;0.60;;
50002;SDS011;35889;51.442;6.408;2022-07-25T06:59:07;0.63;;;0.63;;
50002;SDS011;35889;51.442;6.408;2022-07-25T07:01:33;0.65;;;0.65;;
50002;SDS011;35889;51.442;6.408;2022-07-25T07:03:58;0.70;;;0.70;;
50002;SDS011;35889;51.442;6.408;2022-07-25T07:06:23;0.70;;;0.70;;
50002;SDS011;35889;51.442;6.408;2022-07-25T07:08:48;0.70;;;0.70;;
50002;SDS011;35889;51.442;6.408;2022-07-25T07:11:14;0.70;;;0.70;;
50002;SDS011;35889;51.442;6.408;2022-07-25T07:13:40;0.60;;;0.60;;
50002;SDS011;35889;51.442;6.408;2022-07-25T07:16:06;0.60;;;0.60;;
50002;SDS011;35889;51.442;6.408;2022-07-25T07:18:31;0.60;;;0.60;;
50002;SDS011;35889;51.442;6.408;2022-07-25T07:20:56;0.60;;;0.60;;
50002;SDS011;35889;51.442;6.408;2022-07-25T07:23:22;0.60;;;0.60;;
50002;SDS011;35889;51.442;6.408;2022-07-25T07:25:47;0.60;;;0.60;;
50002;SDS011;35889;51.442;6.408;2022-07-25T07:28:13;0.60;;;0.60;;
50002;SDS011;35889;51.442;6.408;2022-07-25T07:30:38;0.70;;;0.70;;
50002;SDS011;35889;51.442;6.408;2022-07-25T07:33:03;0.55;;;0.55;;
50002;SDS011;35889;51.442;6.408;2022-07-25T07:35:29;0.60;;;0.60;;
50002;SDS011;35889;51.442;6.408;2022-07-25T07:37:54;0.70;;;0.70;;
50002;SDS011;35889;51.442;6.408;2022-07-25T07:40:20;0.70;;;0.70;;
50002;SDS011;35889;51.442;6.408;2022-07-25T07:42:47;0.70;;;0.70;;
50002;SDS011;35889;51.442;6.408;2022-07-25T07:45:14;0.70;;;0.70;;
50002;SDS011;35889;51.442;6.408;2022-07-25T07:47:40;0.70;;;0.70;;
50002;SDS011;35889;51.442;6.408;2022-07-25T07:50:05;0.60;;;0.60;;
50002;SDS011;35889;51.442;6.408;2022-07-25T07:52:31;0.60;;;0.60;;
50002;SDS011;35889;51.442;6.408;2022-07-25T07:54:56;0.70;;;0.70;;
50002;SDS011;35889;51.442;6.408;2022-07-25T07:57:40;0.70;;;0.70;;
50002;SDS011;35889;51.442;6.408;2022-07-25T08:00:05;0.60;;;0.60;;
50002;SDS011;35889;51.442;6.408;2022-07-25T08:02:58;0.70;;;0.70;;
50002;SDS011;35889;51.442;6.408;2022-07-25T08:05:27;0.70;;;0.70;;
50002;SDS011;35889;51.442;6.408;2022-07-25T08:07:53;0.60;;;0.60;;
50002;SDS011;35889;51.442;6.408;2022-07-25T08:10:22;0.60;;;0.60;;
50002;SDS011;35889;51.442;6.408;2022-07-25T08:15:13;0.70;;;0.70;;
50002;SDS011;35889;51.442;6.408;2022-07-25T08:17:39;0.70;;;0.70;;
50002;SDS011;35889;51.442;6.408;2022-07-25T08:20:04;0.60;;;0.60;;
50002;SDS011;35889;51.442;6.408;2022-07-25T08:22:39;0.70;;;0.70;;
50002;SDS011;35889;51.442;6.408;2022-07-25T08:25:06;0.65;;;0.65;;
50002;SDS011;35889;51.442;6.408;2022-07-25T08:27:31;0.60;;;0.60;;
50002;SDS011;35889;51.442;6.408;2022-07-25T08:29:57;0.63;;;0.63;;
50002;SDS011;35889;51.442;6.408;2022-07-25T08:32:25;0.70;;;0.70;;
50002;SDS011;35889;51.442;6.408;2022-07-25T08:34:50;0.60;;;0.60;;
50002;SDS011;35889;51.442;6.408;2022-07-25T08:37:16;0.70;;;0.70;;
50002;SDS011;35889;51.442;6.408;2022-07-25T08:39:41;0.60;;;0.60;;
50002;SDS011;35889;51.442;6.408;2022-07-25T08:42:07;0.70;;;0.70;;
50002;SDS011;35889;51.442;6.408;2022-07-25T08:44:32;0.70;;;0.70;;
50002;SDS011;35889;51.442;6.408;2022-07-25T08:47:00;0.80;;;0.80;;
50002;SDS011;35889;51.442;6.408;2022-07-25T08:49:26;0.77;;;0.77;;
50002;SDS011;35889;51.442;6.408;2022-07-25T08:51:51;0.70;;;0.70;;
50002;SDS011;35889;51.442;6.408;2022-07-25T08:54:17;0.80;;;0.80;;
50002;SDS011;35889;51.442;6.408;2022-07-25T08:56:42;0.70;;;0.70;;
50002;SDS011;35889;51.442;6.408;2022-07-25T08:59:07;0.70;;;0.70;;
50002;SDS011;35889;51.442;6.408;2022-07-25T09:01:34;0.70;;;0.70;;
50002;SDS011;35889;51.442;6.408;2022-07-25T09:03:59;0.80;;;0.80;;
50002;SDS011;35889;51.442;6.408;2022-07-25T09:06:25;0.80;;;0.80;;
50002;SDS011;35889;51.442;6.408;2022-07-25T09:08:57;0.70;;;0.70;;
50002;SDS011;35889;51.442;6.408;2022-07-25T09:11:26;0.60;;;0.60;;
50002;SDS011;35889;51.442;6.408;2022-07-25T09:14:08;0.80;;;0.80;;
50002;SDS011;35889;51.442;6.408;2022-07-25T09:16:35;0.80;;;0.80;;
50002;SDS011;35889;51.442;6.408;2022-07-25T09:19:05;0.80;;;0.80;;
50002;SDS011;35889;51.442;6.408;2022-07-25T09:21:30;0.60;;;0.60;;
50002;SDS011;35889;51.442;6.408;2022-07-25T09:23:56;0.70;;;0.70;;
50002;SDS011;35889;51.442;6.408;2022-07-25T09:26:31;0.70;;;0.70;;
50002;SDS011;35889;51.442;6.408;2022-07-25T09:29:06;0.70;;;0.70;;
50002;SDS011;35889;51.442;6.408;2022-07-25T09:31:31;0.60;;;0.60;;
50002;SDS011;35889;51.442;6.408;2022-07-25T09:33:58;0.70;;;0.70;;
50002;SDS011;35889;51.442;6.408;2022-07-25T09:36:25;0.65;;;0.65;;
50002;SDS011;35889;51.442;6.408;2022-07-25T09:38:51;0.60;;;0.60;;
50002;SDS011;35889;51.442;6.408;2022-07-25T09:41:17;0.60;;;0.60;;
50002;SDS011;35889;51.442;6.408;2022-07-25T09:43:43;0.60;;;0.60;;
50002;SDS011;35889;51.442;6.408;2022-07-25T09:46:09;0.60;;;0.60;;
50002;SDS011;35889;51.442;6.408;2022-07-25T09:48:34;0.60;;;0.60;;
50002;SDS011;35889;51.442;6.408;2022-07-25T09:51:00;0.70;;;0.70;;
50002;SDS011;35889;51.442;6.408;2022-07-25T09:53:25;0.70;;;0.70;;
50002;SDS011;35889;51.442;6.408;2022-07-25T09:55:51;0.63;;;0.63;;
50002;SDS011;35889;51.442;6.408;2022-07-25T09:58:21;0.70;;;0.70;;
50002;SDS011;35889;51.442;6.408;2022-07-25T10:00:46;0.75;;;0.75;;
50002;SDS011;35889;51.442;6.408;2022-07-25T10:03:17;0.70;;;0.70;;
50002;SDS011;35889;51.442;6.408;2022-07-25T10:08:09;0.70;;;0.70;;
50002;SDS011;35889;51.442;6.408;2022-07-25T10:10:39;0.70;;;0.70;;
50002;SDS011;35889;51.442;6.408;2022-07-25T10:13:14;0.70;;;0.70;;
50002;SDS011;35889;51.442;6.408;2022-07-25T10:15:48;0.70;;;0.70;;
50002;SDS011;35889;51.442;6.408;2022-07-25T10:18:15;0.70;;;0.70;;
50002;SDS011;35889;51.442;6.408;2022-07-25T10:20:41;0.70;;;0.70;;
50002;SDS011;35889;51.442;6.408;2022-07-25T10:25:41;0.70;;;0.70;;
50002;SDS011;35889;51.442;6.408;2022-07-25T10:28:08;0.70;;;0.70;;
50002;SDS011;35889;51.442;6.408;2022-07-25T10:30:35;0.70;;;0.70;;
50002;SDS011;35889;51.442;6.408;2022-07-25T10:33:02;0.70;;;0.70;;
50002;SDS011;35889;51.442;6.408;2022-07-25T10:35:28;0.65;;;0.65;;
50002;SDS011;35889;51.442;6.408;2022-07-25T10:37:54;0.70;;;0.70;;
50002;SDS011;35889;51.442;6.408;2022-07-25T10:40:27;0.60;;;0.60;;
50002;SDS011;35889;51.442;6.408;2022-07-25T10:42:56;0.80;;;0.80;;
50002;SDS011;35889;51.442;6.408;2022-07-25T10:45:24;0.70;;;0.70;;
50002;SDS011;35889;51.442;6.408;2022-07-25T10:47:53;0.80;;;0.80;;
50002;SDS011;35889;51.442;6.408;2022-07-25T10:50:18;0.60;;;0.60;;
50002;SDS011;35889;51.442;6.408;2022-07-25T10:52:45;0.63;;;0.63;;
50002;SDS011;35889;51.442;6.408;2022-07-25T10:55:21;0.70;;;0.70;;
50002;SDS011;35889;51.442;6.408;2022-07-25T10:57:58;0.70;;;0.70;;
50002;SDS011;35889;51.442;6.408;2022-07-25T11:00:23;0.70;;;0.70;;
50002;SDS011;35889;51.442;6.408;2022-07-25T11:02:49;0.65;;;0.65;;
50002;SDS011;35889;51.442;6.408;2022-07-25T11:05:14;0.60;;;0.60;;
50002;SDS011;35889;51.442;6.408;2022-07-25T11:07:48;0.70;;;0.70;;
50002;SDS011;35889;51.442;6.408;2022-07-25T11:10:13;0.60;;;0.60;;
50002;SDS011;35889;51.442;6.408;2022-07-25T11:12:39;0.70;;;0.70;;
50002;SDS011;35889;51.442;6.408;2022-07-25T11:15:08;0.80;;;0.80;;
50002;SDS011;35889;51.442;6.408;2022-07-25T11:17:33;0.70;;;0.70;;
50002;SDS011;35889;51.442;6.408;2022-07-25T11:20:08;0.70;;;0.70;;
50002;SDS011;35889;51.442;6.408;2022-07-25T11:22:33;0.70;;;0.70;;
50002;SDS011;35889;51.442;6.408;2022-07-25T11:24:59;0.70;;;0.70;;
50002;SDS011;35889;51.442;6.408;2022-07-25T11:27:31;0.80;;;0.80;;
50002;SDS011;35889;51.442;6.408;2022-07-25T11:32:41;0.70;;;0.70;;
50002;SDS011;35889;51.442;6.408;2022-07-25T11:35:06;0.70;;;0.70;;
50002;SDS011;35889;51.442;6.408;2022-07-25T11:37:32;0.70;;;0.70;;
50002;SDS011;35889;51.442;6.408;2022-07-25T11:39:59;0.70;;;0.70;;
50002;SDS011;35889;51.442;6.408;2022-07-25T11:42:24;0.80;;;0.80;;
50002;SDS011;35889;51.442;6.408;2022-07-25T11:44:51;0.70;;;0.70;;
50002;SDS011;35889;51.442;6.408;2022-07-25T11:47:27;0.60;;;0.60;;
50002;SDS011;35889;51.442;6.408;2022-07-25T11:49:53;0.70;;;0.70;;
50002;SDS011;35889;51.442;6.408;2022-07-25T11:52:20;0.70;;;0.70;;
50002;SDS011;35889;51.442;6.408;2022-07-25T11:54:52;0.70;;;0.70;;
50002;SDS011;35889;51.442;6.408;2022-07-25T11:57:21;0.70;;;0.70;;
50002;SDS011;35889;51.442;6.408;2022-07-25T11:59:47;0.85;;;0.85;;
50002;SDS011;35889;51.442;6.408;2022-07-25T12:04:56;0.80;;;0.80;;
50002;SDS011;35889;51.442;6.408;2022-07-25T12:07:33;0.80;;;0.80;;
50002;SDS011;35889;51.442;6.408;2022-07-25T12:09:58;0.80;;;0.80;;
50002;SDS011;35889;51.442;6.408;2022-07-25T12:12:23;0.80;;;0.80;;
50002;SDS011;35889;51.442;6.408;2022-07-25T12:14:49;0.80;;;0.80;;
50002;SDS011;35889;51.442;6.408;2022-07-25T12:17:16;0.70;;;0.70;;
50002;SDS011;35889;51.442;6.408;2022-07-25T12:19:43;0.70;;;0.70;;
50002;SDS011;35889;51.442;6.408;2022-07-25T12:22:08;0.70;;;0.70;;
50002;SDS011;35889;51.442;6.408;2022-07-25T12:24:34;0.77;;;0.77;;
50002;SDS011;35889;51.442;6.408;2022-07-25T12:26:59;0.80;;;0.80;;
50002;SDS011;35889;51.442;6.408;2022-07-25T12:29:24;0.80;;;0.80;;
50002;SDS011;35889;51.442;6.408;2022-07-25T12:31:49;0.80;;;0.80;;
50002;SDS011;35889;51.442;6.408;2022-07-25T12:34:15;0.70;;;0.70;;
50002;SDS011;35889;51.442;6.408;2022-07-25T12:36:40;0.70;;;0.70;;
50002;SDS011;35889;51.442;6.408;2022-07-25T12:39:09;0.80;;;0.80;;
50002;SDS011;35889;51.442;6.408;2022-07-25T12:41:34;0.70;;;0.70;;
50002;SDS011;35889;51.442;6.408;2022-07-25T12:43:59;0.70;;;0.70;;
50002;SDS011;35889;51.442;6.408;2022-07-25T12:46:26;0.70;;;0.70;;
50002;SDS011;35889;51.442;6.408;2022-07-25T12:48:51;0.60;;;0.60;;
50002;SDS011;35889;51.442;6.408;2022-07-25T12:51:17;0.70;;;0.70;;
50002;SDS011;35889;51.442;6.408;2022-07-25T12:53:42;0.70;;;0.70;;
50002;SDS011;35889;51.442;6.408;2022-07-25T12:56:07;0.70;;;0.70;;
50002;SDS011;35889;51.442;6.408;2022-07-25T12:58:32;0.70;;;0.70;;
50002;SDS011;35889;51.442;6.408;2022-07-25T13:00:58;0.70;;;0.70;;
50002;SDS011;35889;51.442;6.408;2022-07-25T13:03:23;0.70;;;0.70;;
50002;SDS011;35889;51.442;6.408;2022-07-25T13:05:48;0.70;;;0.70;;
50002;SDS011;35889;51.442;6.408;2022-07-25T13:08:13;0.70;;;0.70;;
50002;SDS011;35889;51.442;6.408;2022-07-25T13:10:39;0.70;;;0.70;;
50002;SDS011;35889;51.442;6.408;2022-07-25T13:13:04;0.60;;;0.60;;
50002;SDS011;35889;51.442;6.408;2022-07-25T13:15:30;0.60;;;0.60;;
50002;SDS011;35889;51.442;6.408;2022-07-25T13:17:55;0.60;;;0.60;;
50002;SDS011;35889;51.442;6.408;2022-07-25T13:20:21;0.70;;;0.70;;
50002;SDS011;35889;51.442;6.408;2022-07-25T13:22:46;0.70;;;0.70;;
50002;SDS011;35889;51.442;6.408;2022-07-25T13:25:11;0.70;;;0.70;;
50002;SDS011;35889;51.442;6.408;2022-07-25T13:27:36;0.60;;;0.60;;
50002;SDS011;35889;51.442;6.408;2022-07-25T13:30:02;0.60;;;0.60;;
50002;SDS011;35889;51.442;6.408;2022-07-25T13:32:28;0.60;;;0.60;;
50002;SDS011;35889;51.442;6.408;2022-07-25T13:34:55;0.60;;;0.60;;
50002;SDS011;35889;51.442;6.408;2022-07-25T13:37:21;0.60;;;0.60;;
50002;SDS011;35889;51.442;6.408;2022-07-25T13:39:46;0.60;;;0.60;;
50002;SDS011;35889;51.442;6.408;2022-07-25T13:42:11;0.60;;;0.60;;
50002;SDS011;35889;51.442;6.408;2022-07-25T13:44:36;0.70;;;0.70;;
50002;SDS011;35889;51.442;6.408;2022-07-25T13:47:02;0.60;;;0.60;;
50002;SDS011;35889;51.442;6.408;2022-07-25T13:49:27;0.60;;;0.60;;
50002;SDS011;35889;51.442;6.408;2022-07-25T13:51:53;0.60;;;0.60;;
50002;SDS011;35889;51.442;6.408;2022-07-25T13:54:18;0.60;;;0.60;;
50002;SDS011;35889;51.442;6.408;2022-07-25T13:56:43;0.70;;;0.70;;
50002;SDS011;35889;51.442;6.408;2022-07-25T13:59:09;0.65;;;0.65;;
50002;SDS011;35889;51.442;6.408;2022-07-25T14:01:34;0.60;;;0.60;;
50002;SDS011;35889;51.442;6.408;2022-07-25T14:03:59;0.63;;;0.63;;
50002;SDS011;35889;51.442;6.408;2022-07-25T14:06:25;0.70;;;0.70;;
50002;SDS011;35889;51.442;6.408;2022-07-25T14:08:50;0.70;;;0.70;;
50002;SDS011;35889;51.442;6.408;2022-07-25T14:11:15;0.60;;;0.60;;
50002;SDS011;35889;51.442;6.408;2022-07-25T14:13:40;0.70;;;0.70;;
50002;SDS011;35889;51.442;6.408;2022-07-25T14:16:07;0.63;;;0.63;;
50002;SDS011;35889;51.442;6.408;2022-07-25T14:18:32;0.70;;;0.70;;
50002;SDS011;35889;51.442;6.408;2022-07-25T14:20:58;0.68;;;0.68;;
50002;SDS011;35889;51.442;6.408;2022-07-25T14:23:23;0.65;;;0.65;;
50002;SDS011;35889;51.442;6.408;2022-07-25T14:25:49;0.60;;;0.60;;
50002;SDS011;35889;51.442;6.408;2022-07-25T14:28:14;0.60;;;0.60;;
50002;SDS011;35889;51.442;6.408;2022-07-25T14:30:39;0.60;;;0.60;;
50002;SDS011;35889;51.442;6.408;2022-07-25T14:33:04;0.60;;;0.60;;
50002;SDS011;35889;51.442;6.408;2022-07-25T14:35:30;0.60;;;0.60;;
50002;SDS011;35889;51.442;6.408;2022-07-25T14:37:55;0.70;;;0.70;;
50002;SDS011;35889;51.442;6.408;2022-07-25T14:40:20;0.70;;;0.70;;
50002;SDS011;35889;51.442;6.408;2022-07-25T14:42:45;0.60;;;0.60;;
50002;SDS011;35889;51.442;6.408;2022-07-25T14:45:11;0.70;;;0.70;;
50002;SDS011;35889;51.442;6.408;2022-07-25T14:47:37;0.60;;;0.60;;
50002;SDS011;35889;51.442;6.408;2022-07-25T14:50:03;0.60;;;0.60;;
50002;SDS011;35889;51.442;6.408;2022-07-25T14:52:28;0.70;;;0.70;;
50002;SDS011;35889;51.442;6.408;2022-07-25T14:54:53;0.60;;;0.60;;